createdAt,value
2023-01-29T00:00:53.627Z,24.52
2023-01-29T00:11:02.089Z,26.35
2023-01-29T00:21:10.250Z,25.52
2023-01-29T00:31:15.340Z,24.02
2023-01-29T00:41:39.359Z,24.63
2023-01-29T00:51:42.337Z,23.75
2023-01-29T01:02:04.221Z,24.60
2023-01-29T01:12:07.749Z,24.00
2023-01-29T01:22:12.279Z,24.02
2023-01-29T01:42:20.839Z,24.88
2023-01-29T01:52:24.127Z,26.35
2023-01-29T02:02:46.623Z,28.30
2023-01-29T02:12:49.861Z,28.65
2023-01-29T02:23:34.128Z,27.67
2023-01-29T02:33:49.215Z,21.60
2023-01-29T02:43:59.257Z,28.85
2023-01-29T02:54:08.736Z,26.85
2023-01-29T03:04:15.842Z,28.42
2023-01-29T03:14:49.371Z,26.08
2023-01-29T03:25:14.340Z,27.60
2023-01-29T03:35:36.556Z,26.55
2023-01-29T03:45:50.099Z,25.73
2023-01-29T03:56:02.307Z,26.50
2023-01-29T04:06:12.874Z,29.00
2023-01-29T04:16:29.343Z,27.27
2023-01-29T04:27:02.062Z,29.88
2023-01-29T04:37:17.004Z,27.73
2023-01-29T04:47:25.703Z,29.13
2023-01-29T04:57:36.143Z,30.95
2023-01-29T05:07:40.553Z,30.33
2023-01-29T05:17:45.188Z,32.40
2023-01-29T05:28:05.331Z,31.52
2023-01-29T05:38:09.810Z,31.75
2023-01-29T05:48:12.864Z,33.05
2023-01-29T05:58:19.625Z,32.72
2023-01-29T06:08:22.669Z,32.30
2023-01-29T06:18:27.094Z,36.17
2023-01-29T06:28:30.281Z,37.90
2023-01-29T06:38:35.009Z,34.83
2023-01-29T06:48:38.198Z,34.78
2023-01-29T06:58:43.745Z,35.45
2023-01-29T07:08:46.916Z,34.85
2023-01-29T07:18:51.427Z,36.15
2023-01-29T07:28:54.661Z,37.08
2023-01-29T07:38:59.246Z,36.38
2023-01-29T07:49:02.539Z,35.63
2023-01-29T07:59:06.870Z,35.45
2023-01-29T08:09:10.040Z,35.03
2023-01-29T08:19:14.563Z,36.03
2023-01-29T08:29:17.658Z,33.40
2023-01-29T08:39:22.244Z,34.58
2023-01-29T08:49:25.491Z,32.92
2023-01-29T08:59:30.050Z,34.28
2023-01-29T09:09:33.030Z,33.97
2023-01-29T09:19:37.352Z,30.00
2023-01-29T09:29:40.704Z,29.73
2023-01-29T09:39:45.353Z,29.58
2023-01-29T09:49:51.747Z,28.58
2023-01-29T09:59:56.459Z,28.10
2023-01-29T10:10:26.132Z,27.77
2023-01-29T10:20:56.380Z,26.08
2023-01-29T10:31:03.913Z,26.25
2023-01-29T10:41:26.320Z,25.83
2023-01-29T10:51:55.650Z,22.33
2023-01-29T11:02:03.283Z,23.23
2023-01-29T11:12:13.979Z,21.63
2023-01-29T11:22:21.021Z,20.83
2023-01-29T11:32:29.811Z,23.45
2023-01-29T11:42:35.274Z,23.15
2023-01-29T11:52:42.460Z,25.05
2023-01-29T12:02:50.227Z,24.42
2023-01-29T12:12:53.571Z,22.75
2023-01-29T12:23:05.193Z,22.67
2023-01-29T12:33:16.966Z,22.83
2023-01-29T12:43:28.749Z,24.55
2023-01-29T12:53:36.547Z,25.17
2023-01-29T13:03:51.262Z,27.55
2023-01-29T13:13:59.173Z,28.00
2023-01-29T13:24:06.016Z,28.00
2023-01-29T13:34:15.752Z,29.55
2023-01-29T13:44:24.329Z,28.77
2023-01-29T13:54:29.075Z,30.73
2023-01-29T14:04:34.184Z,31.25
2023-01-29T14:15:21.133Z,30.17
2023-01-29T14:25:32.297Z,30.98
2023-01-29T14:35:36.029Z,34.10
2023-01-29T14:45:42.811Z,31.92
2023-01-29T14:55:49.860Z,29.92
2023-01-29T15:05:55.614Z,31.42
2023-01-29T15:16:07.307Z,30.58
2023-01-29T15:26:16.269Z,29.60
2023-01-29T15:36:22.137Z,27.17
2023-01-29T15:46:29.128Z,29.05
2023-01-29T15:56:39.657Z,27.25
2023-01-29T16:06:44.938Z,27.45
2023-01-29T16:16:49.029Z,26.02
2023-01-29T16:27:00.370Z,21.27
2023-01-29T16:37:07.183Z,24.65
2023-01-29T16:47:15.755Z,23.02
2023-01-29T16:57:22.795Z,21.98
2023-01-29T17:07:28.198Z,22.38
2023-01-29T17:17:33.386Z,23.58
2023-01-29T17:27:42.136Z,22.10
2023-01-29T17:37:45.807Z,21.98
2023-01-29T17:47:50.177Z,22.85
2023-01-29T17:57:53.126Z,22.07
2023-01-29T18:07:57.567Z,26.08
2023-01-29T18:18:00.683Z,24.17
2023-01-29T18:28:06.810Z,25.35
2023-01-29T18:38:10.073Z,25.05
2023-01-29T18:48:14.932Z,26.90
2023-01-29T18:58:28.307Z,28.23
2023-01-29T19:08:41.491Z,27.52
2023-01-29T19:18:44.816Z,30.88
2023-01-29T19:28:49.439Z,28.77
2023-01-29T19:38:52.695Z,27.80
2023-01-29T19:48:58.718Z,28.90
2023-01-29T19:59:02.242Z,29.20
2023-01-29T20:09:07.104Z,28.17
2023-01-29T20:19:14.637Z,29.48
2023-01-29T20:29:19.576Z,29.33
2023-01-29T20:39:22.950Z,31.07
2023-01-29T20:49:28.663Z,29.27
2023-01-29T20:59:31.983Z,31.10
2023-01-29T21:09:36.428Z,32.20
2023-01-29T21:19:39.516Z,31.10
2023-01-29T21:29:43.991Z,32.80
2023-01-29T21:39:47.308Z,31.77
2023-01-29T21:49:51.730Z,31.90
2023-01-29T21:59:55.209Z,32.27
2023-01-29T22:09:59.679Z,34.88
2023-01-29T22:20:03.081Z,34.00
2023-01-29T22:30:09.418Z,36.88
2023-01-29T22:40:13.690Z,35.00
2023-01-29T22:50:18.389Z,37.30
2023-01-29T23:00:22.641Z,37.15
2023-01-29T23:10:26.946Z,26.73
2023-01-29T23:20:30.205Z,29.57
2023-01-29T23:30:34.624Z,36.22
2023-01-29T23:40:37.761Z,35.87
2023-01-29T23:50:42.179Z,34.17
